sensor_id;sensor_type;location;lat;lon;timestamp;temperature;humidity
9564;DHT22;4820;50.870;4.702;2022-09-09T00:02:04;15.80;99.90
9564;DHT22;4820;50.870;4.702;2022-09-09T00:04:36;15.80;99.90
9564;DHT22;4820;50.870;4.702;2022-09-09T00:09:49;15.90;99.90
9564;DHT22;4820;50.870;4.702;2022-09-09T00:12:43;15.90;99.90
9564;DHT22;4820;50.870;4.702;2022-09-09T00:15:19;15.90;99.90
9564;DHT22;4820;50.870;4.702;2022-09-09T00:23:39;15.90;99.90
9564;DHT22;4820;50.870;4.702;2022-09-09T00:31:29;15.80;99.90
9564;DHT22;4820;50.870;4.702;2022-09-09T00:34:02;15.70;99.90
9564;DHT22;4820;50.870;4.702;2022-09-09T00:36:31;15.80;99.90
9564;DHT22;4820;50.870;4.702;2022-09-09T00:39:01;15.80;99.90
9564;DHT22;4820;50.870;4.702;2022-09-09T00:47:18;15.80;99.90
9564;DHT22;4820;50.870;4.702;2022-09-09T00:55:19;15.90;99.90
9564;DHT22;4820;50.870;4.702;2022-09-09T00:57:51;15.90;99.90
9564;DHT22;4820;50.870;4.702;2022-09-09T01:00:32;16.10;99.90
9564;DHT22;4820;50.870;4.702;2022-09-09T01:09:16;16.10;99.90
9564;DHT22;4820;50.870;4.702;2022-09-09T01:14:50;16.10;99.90
9564;DHT22;4820;50.870;4.702;2022-09-09T01:17:33;16.00;99.90
9564;DHT22;4820;50.870;4.702;2022-09-09T01:20:08;16.00;99.90
9564;DHT22;4820;50.870;4.702;2022-09-09T01:27:57;15.90;99.90
9564;DHT22;4820;50.870;4.702;2022-09-09T01:30:26;15.90;99.90
9564;DHT22;4820;50.870;4.702;2022-09-09T01:32:55;15.90;99.90
9564;DHT22;4820;50.870;4.702;2022-09-09T01:38:04;15.90;99.90
9564;DHT22;4820;50.870;4.702;2022-09-09T01:40:30;15.90;99.90
9564;DHT22;4820;50.870;4.702;2022-09-09T01:42:56;15.90;99.90
9564;DHT22;4820;50.870;4.702;2022-09-09T01:45:22;15.90;99.90
9564;DHT22;4820;50.870;4.702;2022-09-09T01:47:49;15.90;99.90
9564;DHT22;4820;50.870;4.702;2022-09-09T01:50:17;15.90;99.90
9564;DHT22;4820;50.870;4.702;2022-09-09T01:52:45;15.90;99.90
9564;DHT22;4820;50.870;4.702;2022-09-09T01:55:11;15.90;99.90
9564;DHT22;4820;50.870;4.702;2022-09-09T02:00:25;15.80;99.90
9564;DHT22;4820;50.870;4.702;2022-09-09T02:03:08;15.80;99.90
9564;DHT22;4820;50.870;4.702;2022-09-09T02:05:43;15.80;99.90
9564;DHT22;4820;50.870;4.702;2022-09-09T02:08:34;15.80;99.90
9564;DHT22;4820;50.870;4.702;2022-09-09T02:11:09;15.80;99.90
9564;DHT22;4820;50.870;4.702;2022-09-09T02:13:38;15.80;99.90
9564;DHT22;4820;50.870;4.702;2022-09-09T02:16:10;15.80;99.90
9564;DHT22;4820;50.870;4.702;2022-09-09T02:18:55;15.80;99.90
9564;DHT22;4820;50.870;4.702;2022-09-09T02:21:23;15.80;99.90
9564;DHT22;4820;50.870;4.702;2022-09-09T02:23:50;15.80;99.90
9564;DHT22;4820;50.870;4.702;2022-09-09T02:26:19;15.80;99.90
9564;DHT22;4820;50.870;4.702;2022-09-09T02:28:51;15.80;99.90
9564;DHT22;4820;50.870;4.702;2022-09-09T02:31:21;15.80;99.90
9564;DHT22;4820;50.870;4.702;2022-09-09T02:33:53;15.80;99.90
9564;DHT22;4820;50.870;4.702;2022-09-09T02:36:23;15.80;99.90
9564;DHT22;4820;50.870;4.702;2022-09-09T02:38:51;15.80;99.90
9564;DHT22;4820;50.870;4.702;2022-09-09T02:41:34;15.80;99.90
9564;DHT22;4820;50.870;4.702;2022-09-09T02:44:00;15.80;99.90
9564;DHT22;4820;50.870;4.702;2022-09-09T02:46:44;15.80;99.90
9564;DHT22;4820;50.870;4.702;2022-09-09T02:52:11;15.80;99.90
9564;DHT22;4820;50.870;4.702;2022-09-09T02:54:41;15.80;99.90
9564;DHT22;4820;50.870;4.702;2022-09-09T02:57:24;15.70;99.90
9564;DHT22;4820;50.870;4.702;2022-09-09T02:59:51;15.70;99.90
9564;DHT22;4820;50.870;4.702;2022-09-09T03:02:20;15.70;99.90
9564;DHT22;4820;50.870;4.702;2022-09-09T03:04:45;15.70;99.90
9564;DHT22;4820;50.870;4.702;2022-09-09T03:07:16;15.70;99.90
9564;DHT22;4820;50.870;4.702;2022-09-09T03:09:42;15.70;99.90
9564;DHT22;4820;50.870;4.702;2022-09-09T03:12:08;15.70;99.90
9564;DHT22;4820;50.870;4.702;2022-09-09T03:14:38;15.80;99.90
9564;DHT22;4820;50.870;4.702;2022-09-09T03:17:05;15.70;99.90
9564;DHT22;4820;50.870;4.702;2022-09-09T03:19:31;15.70;99.90
9564;DHT22;4820;50.870;4.702;2022-09-09T03:21:57;15.70;99.90
9564;DHT22;4820;50.870;4.702;2022-09-09T03:24:25;15.70;99.90
9564;DHT22;4820;50.870;4.702;2022-09-09T03:26:51;15.60;99.90
9564;DHT22;4820;50.870;4.702;2022-09-09T03:29:17;15.60;99.90
9564;DHT22;4820;50.870;4.702;2022-09-09T03:31:46;15.60;99.90
9564;DHT22;4820;50.870;4.702;2022-09-09T03:34:12;15.60;99.90
9564;DHT22;4820;50.870;4.702;2022-09-09T03:36:39;15.60;99.90
9564;DHT22;4820;50.870;4.702;2022-09-09T03:39:06;15.60;99.90
9564;DHT22;4820;50.870;4.702;2022-09-09T03:41:33;15.60;99.90
9564;DHT22;4820;50.870;4.702;2022-09-09T03:43:59;15.60;99.90
9564;DHT22;4820;50.870;4.702;2022-09-09T03:46:25;15.60;99.90
9564;DHT22;4820;50.870;4.702;2022-09-09T03:48:51;15.60;99.90
9564;DHT22;4820;50.870;4.702;2022-09-09T03:51:22;15.60;99.90
9564;DHT22;4820;50.870;4.702;2022-09-09T03:53:47;15.60;99.90
9564;DHT22;4820;50.870;4.702;2022-09-09T03:56:13;15.60;99.90
9564;DHT22;4820;50.870;4.702;2022-09-09T03:58:39;15.60;99.90
9564;DHT22;4820;50.870;4.702;2022-09-09T04:01:13;15.60;99.90
9564;DHT22;4820;50.870;4.702;2022-09-09T04:03:40;15.60;99.90
9564;DHT22;4820;50.870;4.702;2022-09-09T04:06:07;15.60;99.90
9564;DHT22;4820;50.870;4.702;2022-09-09T04:08:34;15.60;99.90
9564;DHT22;4820;50.870;4.702;2022-09-09T04:11:02;15.50;99.90
9564;DHT22;4820;50.870;4.702;2022-09-09T04:13:34;15.50;99.90
9564;DHT22;4820;50.870;4.702;2022-09-09T04:16:02;15.50;99.90
9564;DHT22;4820;50.870;4.702;2022-09-09T04:18:29;15.50;99.90
9564;DHT22;4820;50.870;4.702;2022-09-09T04:20:56;15.60;99.90
9564;DHT22;4820;50.870;4.702;2022-09-09T04:23:26;15.50;99.90
9564;DHT22;4820;50.870;4.702;2022-09-09T04:25:55;15.50;99.90
9564;DHT22;4820;50.870;4.702;2022-09-09T04:28:23;15.60;99.90
9564;DHT22;4820;50.870;4.702;2022-09-09T04:30:49;15.60;99.90
9564;DHT22;4820;50.870;4.702;2022-09-09T04:33:17;15.60;99.90
9564;DHT22;4820;50.870;4.702;2022-09-09T04:35:50;15.70;99.90
9564;DHT22;4820;50.870;4.702;2022-09-09T04:38:16;15.70;99.90
9564;DHT22;4820;50.870;4.702;2022-09-09T04:40:49;15.70;99.90
9564;DHT22;4820;50.870;4.702;2022-09-09T04:43:18;15.70;99.90
9564;DHT22;4820;50.870;4.702;2022-09-09T04:45:48;15.70;99.90
9564;DHT22;4820;50.870;4.702;2022-09-09T04:48:14;15.70;99.90
9564;DHT22;4820;50.870;4.702;2022-09-09T04:50:39;15.60;99.90
9564;DHT22;4820;50.870;4.702;2022-09-09T04:53:08;15.60;99.90
9564;DHT22;4820;50.870;4.702;2022-09-09T04:55:34;15.50;99.90
9564;DHT22;4820;50.870;4.702;2022-09-09T04:58:08;15.50;99.90
9564;DHT22;4820;50.870;4.702;2022-09-09T05:00:37;15.50;99.90
9564;DHT22;4820;50.870;4.702;2022-09-09T05:03:04;15.50;99.90
9564;DHT22;4820;50.870;4.702;2022-09-09T05:05:35;15.40;99.90
9564;DHT22;4820;50.870;4.702;2022-09-09T05:08:06;15.40;99.90
9564;DHT22;4820;50.870;4.702;2022-09-09T05:10:34;15.40;99.90
9564;DHT22;4820;50.870;4.702;2022-09-09T05:12:59;15.40;99.90
9564;DHT22;4820;50.870;4.702;2022-09-09T05:15:25;15.40;99.90
9564;DHT22;4820;50.870;4.702;2022-09-09T05:17:52;15.30;99.90
9564;DHT22;4820;50.870;4.702;2022-09-09T05:20:18;15.40;99.90
9564;DHT22;4820;50.870;4.702;2022-09-09T05:22:44;15.40;99.90
9564;DHT22;4820;50.870;4.702;2022-09-09T05:25:10;15.30;99.90
9564;DHT22;4820;50.870;4.702;2022-09-09T05:27:35;15.40;99.90
9564;DHT22;4820;50.870;4.702;2022-09-09T05:30:01;15.40;99.90
9564;DHT22;4820;50.870;4.702;2022-09-09T05:32:27;15.50;99.90
9564;DHT22;4820;50.870;4.702;2022-09-09T05:34:53;15.50;99.90
9564;DHT22;4820;50.870;4.702;2022-09-09T05:37:19;15.50;99.90
9564;DHT22;4820;50.870;4.702;2022-09-09T05:39:46;15.60;99.90
9564;DHT22;4820;50.870;4.702;2022-09-09T05:42:11;15.60;99.90
9564;DHT22;4820;50.870;4.702;2022-09-09T05:44:39;15.60;99.90
9564;DHT22;4820;50.870;4.702;2022-09-09T05:47:05;15.60;99.90
9564;DHT22;4820;50.870;4.702;2022-09-09T05:49:32;15.70;99.90
9564;DHT22;4820;50.870;4.702;2022-09-09T05:51:57;15.70;99.90
9564;DHT22;4820;50.870;4.702;2022-09-09T05:54:24;15.70;99.90
9564;DHT22;4820;50.870;4.702;2022-09-09T05:56:50;15.80;99.90
9564;DHT22;4820;50.870;4.702;2022-09-09T05:59:20;15.90;99.90
9564;DHT22;4820;50.870;4.702;2022-09-09T06:01:47;16.00;99.90
9564;DHT22;4820;50.870;4.702;2022-09-09T06:04:13;16.00;99.90
9564;DHT22;4820;50.870;4.702;2022-09-09T06:06:41;16.10;99.90
9564;DHT22;4820;50.870;4.702;2022-09-09T06:09:09;16.10;99.90
9564;DHT22;4820;50.870;4.702;2022-09-09T06:11:37;16.20;99.90
9564;DHT22;4820;50.870;4.702;2022-09-09T06:14:04;16.20;99.90
9564;DHT22;4820;50.870;4.702;2022-09-09T06:16:30;16.20;99.90
9564;DHT22;4820;50.870;4.702;2022-09-09T06:18:58;16.20;99.90
9564;DHT22;4820;50.870;4.702;2022-09-09T06:21:32;16.20;99.90
9564;DHT22;4820;50.870;4.702;2022-09-09T06:23:59;16.20;99.90
9564;DHT22;4820;50.870;4.702;2022-09-09T06:26:33;16.30;99.90
9564;DHT22;4820;50.870;4.702;2022-09-09T06:29:03;16.30;99.90
9564;DHT22;4820;50.870;4.702;2022-09-09T06:31:31;16.30;99.90
9564;DHT22;4820;50.870;4.702;2022-09-09T06:33:58;16.40;99.90
9564;DHT22;4820;50.870;4.702;2022-09-09T06:36:26;16.40;99.90
9564;DHT22;4820;50.870;4.702;2022-09-09T06:38:52;16.50;99.90
9564;DHT22;4820;50.870;4.702;2022-09-09T06:41:21;16.50;99.90
9564;DHT22;4820;50.870;4.702;2022-09-09T06:43:47;16.60;99.90
9564;DHT22;4820;50.870;4.702;2022-09-09T06:46:17;16.60;99.90
9564;DHT22;4820;50.870;4.702;2022-09-09T06:48:44;16.60;99.90
9564;DHT22;4820;50.870;4.702;2022-09-09T06:51:16;16.70;99.90
9564;DHT22;4820;50.870;4.702;2022-09-09T06:53:44;16.80;99.90
9564;DHT22;4820;50.870;4.702;2022-09-09T06:58:37;16.90;99.90
9564;DHT22;4820;50.870;4.702;2022-09-09T07:01:08;16.90;99.90
9564;DHT22;4820;50.870;4.702;2022-09-09T07:03:35;16.90;99.90
9564;DHT22;4820;50.870;4.702;2022-09-09T07:06:01;16.90;99.90
9564;DHT22;4820;50.870;4.702;2022-09-09T07:08:30;16.90;99.90
9564;DHT22;4820;50.870;4.702;2022-09-09T07:11:03;16.90;99.90
9564;DHT22;4820;50.870;4.702;2022-09-09T07:13:30;16.80;99.90
9564;DHT22;4820;50.870;4.702;2022-09-09T07:16:07;16.90;99.90
9564;DHT22;4820;50.870;4.702;2022-09-09T07:18:35;16.90;99.90
9564;DHT22;4820;50.870;4.702;2022-09-09T07:21:02;16.90;99.90
9564;DHT22;4820;50.870;4.702;2022-09-09T07:23:29;17.00;99.90
9564;DHT22;4820;50.870;4.702;2022-09-09T07:25:58;17.00;99.90
9564;DHT22;4820;50.870;4.702;2022-09-09T07:28:25;17.00;99.90
9564;DHT22;4820;50.870;4.702;2022-09-09T07:31:00;17.00;99.90
9564;DHT22;4820;50.870;4.702;2022-09-09T07:33:31;17.10;99.90
9564;DHT22;4820;50.870;4.702;2022-09-09T07:36:05;17.10;99.90
9564;DHT22;4820;50.870;4.702;2022-09-09T07:38:32;17.20;99.90
9564;DHT22;4820;50.870;4.702;2022-09-09T07:41:06;17.20;99.90
9564;DHT22;4820;50.870;4.702;2022-09-09T07:43:32;17.20;99.90
9564;DHT22;4820;50.870;4.702;2022-09-09T07:45:59;17.10;99.90
9564;DHT22;4820;50.870;4.702;2022-09-09T07:48:27;17.00;99.90
9564;DHT22;4820;50.870;4.702;2022-09-09T07:51:02;17.00;99.90
9564;DHT22;4820;50.870;4.702;2022-09-09T07:53:28;17.10;99.90
9564;DHT22;4820;50.870;4.702;2022-09-09T07:55:54;17.00;99.90
9564;DHT22;4820;50.870;4.702;2022-09-09T07:58:21;17.00;99.90
9564;DHT22;4820;50.870;4.702;2022-09-09T08:00:46;17.00;99.90
9564;DHT22;4820;50.870;4.702;2022-09-09T08:03:12;17.10;99.90
9564;DHT22;4820;50.870;4.702;2022-09-09T08:05:37;17.20;99.90
9564;DHT22;4820;50.870;4.702;2022-09-09T08:08:05;17.30;99.90
9564;DHT22;4820;50.870;4.702;2022-09-09T08:10:31;17.40;99.90
9564;DHT22;4820;50.870;4.702;2022-09-09T08:12:57;17.40;99.90
9564;DHT22;4820;50.870;4.702;2022-09-09T08:15:22;17.40;99.90
9564;DHT22;4820;50.870;4.702;2022-09-09T08:17:48;17.50;99.90
9564;DHT22;4820;50.870;4.702;2022-09-09T08:20:14;17.50;99.90
9564;DHT22;4820;50.870;4.702;2022-09-09T08:22:40;17.70;99.90
9564;DHT22;4820;50.870;4.702;2022-09-09T08:25:07;17.80;99.90
9564;DHT22;4820;50.870;4.702;2022-09-09T08:27:33;17.90;99.90
9564;DHT22;4820;50.870;4.702;2022-09-09T08:29:59;18.00;99.90
9564;DHT22;4820;50.870;4.702;2022-09-09T08:32:25;18.00;99.90
9564;DHT22;4820;50.870;4.702;2022-09-09T08:34:51;18.20;99.90
9564;DHT22;4820;50.870;4.702;2022-09-09T08:37:17;18.20;99.90
9564;DHT22;4820;50.870;4.702;2022-09-09T08:39:43;18.10;99.90
9564;DHT22;4820;50.870;4.702;2022-09-09T08:42:21;18.10;99.90
9564;DHT22;4820;50.870;4.702;2022-09-09T08:50:35;17.90;99.90
9564;DHT22;4820;50.870;4.702;2022-09-09T08:53:02;17.90;99.90
9564;DHT22;4820;50.870;4.702;2022-09-09T08:55:43;17.80;99.90
9564;DHT22;4820;50.870;4.702;2022-09-09T08:58:27;17.80;99.90
9564;DHT22;4820;50.870;4.702;2022-09-09T09:03:50;17.70;99.90
9564;DHT22;4820;50.870;4.702;2022-09-09T09:11:57;17.40;99.90
9564;DHT22;4820;50.870;4.702;2022-09-09T09:14:28;17.20;99.90
9564;DHT22;4820;50.870;4.702;2022-09-09T09:19:35;17.10;99.90
9564;DHT22;4820;50.870;4.702;2022-09-09T09:25:12;17.00;99.90
9564;DHT22;4820;50.870;4.702;2022-09-09T09:28:02;17.00;99.90
9564;DHT22;4820;50.870;4.702;2022-09-09T09:30:40;17.00;99.90
9564;DHT22;4820;50.870;4.702;2022-09-09T09:35:54;16.90;99.90
9564;DHT22;4820;50.870;4.702;2022-09-09T09:38:23;17.00;99.90
9564;DHT22;4820;50.870;4.702;2022-09-09T09:40:57;17.00;99.90
9564;DHT22;4820;50.870;4.702;2022-09-09T09:43:31;17.00;99.90
9564;DHT22;4820;50.870;4.702;2022-09-09T09:45:58;17.00;99.90
9564;DHT22;4820;50.870;4.702;2022-09-09T09:48:27;17.00;99.90
9564;DHT22;4820;50.870;4.702;2022-09-09T09:51:09;16.90;99.90
9564;DHT22;4820;50.870;4.702;2022-09-09T09:53:36;16.90;99.90
9564;DHT22;4820;50.870;4.702;2022-09-09T09:56:11;16.80;99.90
9564;DHT22;4820;50.870;4.702;2022-09-09T10:01:04;16.70;99.90
9564;DHT22;4820;50.870;4.702;2022-09-09T10:03:32;16.80;99.90
9564;DHT22;4820;50.870;4.702;2022-09-09T10:05:58;16.80;99.90
9564;DHT22;4820;50.870;4.702;2022-09-09T10:08:25;16.80;99.90
9564;DHT22;4820;50.870;4.702;2022-09-09T10:19:41;16.90;99.90
9564;DHT22;4820;50.870;4.702;2022-09-09T10:22:25;16.90;99.90
9564;DHT22;4820;50.870;4.702;2022-09-09T10:25:04;16.80;99.90
9564;DHT22;4820;50.870;4.702;2022-09-09T10:33:34;17.00;99.90
9564;DHT22;4820;50.870;4.702;2022-09-09T10:38:47;16.80;99.90
9564;DHT22;4820;50.870;4.702;2022-09-09T10:41:25;16.80;99.90
9564;DHT22;4820;50.870;4.702;2022-09-09T10:52:20;16.80;99.90
9564;DHT22;4820;50.870;4.702;2022-09-09T10:57:50;16.90;99.90
9564;DHT22;4820;50.870;4.702;2022-09-09T11:00:23;17.00;99.90
9564;DHT22;4820;50.870;4.702;2022-09-09T11:02:58;17.10;99.90
9564;DHT22;4820;50.870;4.702;2022-09-09T11:08:14;17.40;99.90
9564;DHT22;4820;50.870;4.702;2022-09-09T11:13:46;17.60;99.90
9564;DHT22;4820;50.870;4.702;2022-09-09T11:16:23;17.60;99.90
9564;DHT22;4820;50.870;4.702;2022-09-09T11:18:55;17.60;99.90
9564;DHT22;4820;50.870;4.702;2022-09-09T11:21:34;17.70;99.90
9564;DHT22;4820;50.870;4.702;2022-09-09T11:24:06;17.70;99.90
9564;DHT22;4820;50.870;4.702;2022-09-09T11:26:49;17.90;99.90
9564;DHT22;4820;50.870;4.702;2022-09-09T11:32:08;18.00;99.90
9564;DHT22;4820;50.870;4.702;2022-09-09T11:35:19;18.00;99.90
9564;DHT22;4820;50.870;4.702;2022-09-09T11:40:25;18.20;99.90
9564;DHT22;4820;50.870;4.702;2022-09-09T11:43:13;18.30;99.90
9564;DHT22;4820;50.870;4.702;2022-09-09T11:45:42;18.40;99.90
9564;DHT22;4820;50.870;4.702;2022-09-09T11:48:34;18.40;99.90
9564;DHT22;4820;50.870;4.702;2022-09-09T11:51:07;18.40;99.90
9564;DHT22;4820;50.870;4.702;2022-09-09T11:53:35;18.50;99.90
9564;DHT22;4820;50.870;4.702;2022-09-09T11:56:08;18.50;99.90
9564;DHT22;4820;50.870;4.702;2022-09-09T11:58:43;18.60;99.90
9564;DHT22;4820;50.870;4.702;2022-09-09T12:04:40;18.50;99.90
9564;DHT22;4820;50.870;4.702;2022-09-09T12:07:05;18.60;99.90
9564;DHT22;4820;50.870;4.702;2022-09-09T12:09:48;18.60;99.90
9564;DHT22;4820;50.870;4.702;2022-09-09T12:12:37;18.60;99.90
9564;DHT22;4820;50.870;4.702;2022-09-09T12:17:41;18.80;99.90
9564;DHT22;4820;50.870;4.702;2022-09-09T12:30:58;19.00;99.90
9564;DHT22;4820;50.870;4.702;2022-09-09T12:33:34;19.00;99.90
9564;DHT22;4820;50.870;4.702;2022-09-09T12:36:00;19.10;99.90
9564;DHT22;4820;50.870;4.702;2022-09-09T12:38:39;19.30;99.90
9564;DHT22;4820;50.870;4.702;2022-09-09T12:41:06;19.40;99.90
9564;DHT22;4820;50.870;4.702;2022-09-09T12:43:31;19.40;99.90
9564;DHT22;4820;50.870;4.702;2022-09-09T12:46:08;19.40;99.90
9564;DHT22;4820;50.870;4.702;2022-09-09T12:48:40;19.40;99.90
9564;DHT22;4820;50.870;4.702;2022-09-09T12:51:26;19.40;99.90
9564;DHT22;4820;50.870;4.702;2022-09-09T12:53:54;19.30;99.90
9564;DHT22;4820;50.870;4.702;2022-09-09T12:56:26;19.30;99.90
9564;DHT22;4820;50.870;4.702;2022-09-09T12:58:54;19.20;99.90
9564;DHT22;4820;50.870;4.702;2022-09-09T13:01:32;19.20;99.90
9564;DHT22;4820;50.870;4.702;2022-09-09T13:03:59;19.20;99.90
9564;DHT22;4820;50.870;4.702;2022-09-09T13:06:27;19.30;99.90
9564;DHT22;4820;50.870;4.702;2022-09-09T13:08:55;19.50;99.90
9564;DHT22;4820;50.870;4.702;2022-09-09T13:11:30;19.70;99.90
9564;DHT22;4820;50.870;4.702;2022-09-09T13:14:00;19.80;99.90
9564;DHT22;4820;50.870;4.702;2022-09-09T13:16:32;19.90;99.90
9564;DHT22;4820;50.870;4.702;2022-09-09T13:19:10;19.80;99.90
9564;DHT22;4820;50.870;4.702;2022-09-09T13:21:39;19.70;99.90
9564;DHT22;4820;50.870;4.702;2022-09-09T13:24:21;19.70;99.90
9564;DHT22;4820;50.870;4.702;2022-09-09T13:26:58;19.80;99.90
9564;DHT22;4820;50.870;4.702;2022-09-09T13:29:24;19.90;99.90
9564;DHT22;4820;50.870;4.702;2022-09-09T13:31:51;19.90;99.90
9564;DHT22;4820;50.870;4.702;2022-09-09T13:34:32;19.90;99.90
9564;DHT22;4820;50.870;4.702;2022-09-09T13:37:01;20.10;99.90
9564;DHT22;4820;50.870;4.702;2022-09-09T13:39:28;20.20;99.90
9564;DHT22;4820;50.870;4.702;2022-09-09T13:41:54;20.30;99.90
9564;DHT22;4820;50.870;4.702;2022-09-09T13:44:26;20.20;99.90
9564;DHT22;4820;50.870;4.702;2022-09-09T13:47:28;20.20;99.90
9564;DHT22;4820;50.870;4.702;2022-09-09T13:49:52;20.10;99.90
9564;DHT22;4820;50.870;4.702;2022-09-09T13:52:19;20.20;99.90
9564;DHT22;4820;50.870;4.702;2022-09-09T13:54:49;20.20;99.90
9564;DHT22;4820;50.870;4.702;2022-09-09T13:57:33;20.10;99.90
9564;DHT22;4820;50.870;4.702;2022-09-09T14:00:01;20.10;99.90
9564;DHT22;4820;50.870;4.702;2022-09-09T14:02:28;20.00;99.90
9564;DHT22;4820;50.870;4.702;2022-09-09T14:04:53;20.10;99.90
9564;DHT22;4820;50.870;4.702;2022-09-09T14:07:21;20.10;99.90
9564;DHT22;4820;50.870;4.702;2022-09-09T14:09:47;20.10;99.90
9564;DHT22;4820;50.870;4.702;2022-09-09T14:12:15;20.20;99.90
9564;DHT22;4820;50.870;4.702;2022-09-09T14:14:42;20.40;99.90
9564;DHT22;4820;50.870;4.702;2022-09-09T14:17:09;20.50;99.90
9564;DHT22;4820;50.870;4.702;2022-09-09T14:19:35;20.60;99.90
9564;DHT22;4820;50.870;4.702;2022-09-09T14:22:02;20.50;99.90
9564;DHT22;4820;50.870;4.702;2022-09-09T14:24:28;20.50;99.90
9564;DHT22;4820;50.870;4.702;2022-09-09T14:26:54;20.60;99.90
9564;DHT22;4820;50.870;4.702;2022-09-09T14:29:20;20.50;99.90
9564;DHT22;4820;50.870;4.702;2022-09-09T14:31:46;20.40;99.90
9564;DHT22;4820;50.870;4.702;2022-09-09T14:34:12;20.30;99.90
9564;DHT22;4820;50.870;4.702;2022-09-09T14:36:38;20.40;99.90
9564;DHT22;4820;50.870;4.702;2022-09-09T14:39:05;20.40;99.90
9564;DHT22;4820;50.870;4.702;2022-09-09T14:41:30;20.50;99.90
9564;DHT22;4820;50.870;4.702;2022-09-09T14:43:56;20.40;99.90
9564;DHT22;4820;50.870;4.702;2022-09-09T14:46:22;20.40;99.90
9564;DHT22;4820;50.870;4.702;2022-09-09T14:48:49;20.40;99.90
9564;DHT22;4820;50.870;4.702;2022-09-09T14:51:23;20.30;99.90
9564;DHT22;4820;50.870;4.702;2022-09-09T14:53:54;20.30;99.90
9564;DHT22;4820;50.870;4.702;2022-09-09T14:56:22;20.40;99.90
9564;DHT22;4820;50.870;4.702;2022-09-09T14:58:49;20.40;99.90
9564;DHT22;4820;50.870;4.702;2022-09-09T15:01:19;20.40;99.90
9564;DHT22;4820;50.870;4.702;2022-09-09T15:03:54;20.50;99.90
9564;DHT22;4820;50.870;4.702;2022-09-09T15:06:21;20.50;99.90
9564;DHT22;4820;50.870;4.702;2022-09-09T15:08:47;20.40;99.90
9564;DHT22;4820;50.870;4.702;2022-09-09T15:11:14;20.40;99.90
9564;DHT22;4820;50.870;4.702;2022-09-09T15:13:41;20.40;99.90
9564;DHT22;4820;50.870;4.702;2022-09-09T15:16:18;20.40;99.90
9564;DHT22;4820;50.870;4.702;2022-09-09T15:18:45;20.50;99.90
9564;DHT22;4820;50.870;4.702;2022-09-09T15:21:17;20.50;99.90
9564;DHT22;4820;50.870;4.702;2022-09-09T15:23:45;20.50;99.90
9564;DHT22;4820;50.870;4.702;2022-09-09T15:26:12;20.50;99.90
9564;DHT22;4820;50.870;4.702;2022-09-09T15:28:41;20.40;99.90
9564;DHT22;4820;50.870;4.702;2022-09-09T15:31:29;20.30;99.90
9564;DHT22;4820;50.870;4.702;2022-09-09T15:33:59;20.30;99.90
9564;DHT22;4820;50.870;4.702;2022-09-09T15:36:40;20.30;99.90
9564;DHT22;4820;50.870;4.702;2022-09-09T15:39:08;20.20;99.90
9564;DHT22;4820;50.870;4.702;2022-09-09T15:41:36;20.20;99.90
9564;DHT22;4820;50.870;4.702;2022-09-09T15:44:02;20.20;99.90
9564;DHT22;4820;50.870;4.702;2022-09-09T15:46:35;20.30;99.90
9564;DHT22;4820;50.870;4.702;2022-09-09T15:49:12;20.30;99.90
9564;DHT22;4820;50.870;4.702;2022-09-09T15:51:43;20.30;99.90
9564;DHT22;4820;50.870;4.702;2022-09-09T15:54:17;20.30;99.90
9564;DHT22;4820;50.870;4.702;2022-09-09T15:56:45;20.40;99.90
9564;DHT22;4820;50.870;4.702;2022-09-09T15:59:13;20.40;99.90
9564;DHT22;4820;50.870;4.702;2022-09-09T16:01:40;20.40;99.90
9564;DHT22;4820;50.870;4.702;2022-09-09T16:04:07;20.40;99.90
9564;DHT22;4820;50.870;4.702;2022-09-09T16:06:33;20.40;99.90
9564;DHT22;4820;50.870;4.702;2022-09-09T16:08:59;20.40;99.90
9564;DHT22;4820;50.870;4.702;2022-09-09T16:11:31;20.50;99.90
9564;DHT22;4820;50.870;4.702;2022-09-09T16:13:57;20.50;99.90
9564;DHT22;4820;50.870;4.702;2022-09-09T16:16:26;20.40;99.90
9564;DHT22;4820;50.870;4.702;2022-09-09T16:18:58;20.30;99.90
9564;DHT22;4820;50.870;4.702;2022-09-09T16:21:33;20.20;99.90
9564;DHT22;4820;50.870;4.702;2022-09-09T16:24:01;20.10;99.90
9564;DHT22;4820;50.870;4.702;2022-09-09T16:26:32;20.00;99.90
9564;DHT22;4820;50.870;4.702;2022-09-09T16:28:59;19.80;99.90
9564;DHT22;4820;50.870;4.702;2022-09-09T16:31:28;19.70;99.90
9564;DHT22;4820;50.870;4.702;2022-09-09T16:33:56;19.70;99.90
9564;DHT22;4820;50.870;4.702;2022-09-09T16:36:32;19.60;99.90
9564;DHT22;4820;50.870;4.702;2022-09-09T16:39:05;19.50;99.90
9564;DHT22;4820;50.870;4.702;2022-09-09T16:41:33;19.50;99.90
9564;DHT22;4820;50.870;4.702;2022-09-09T16:44:01;19.40;99.90
9564;DHT22;4820;50.870;4.702;2022-09-09T16:46:30;19.40;99.90
9564;DHT22;4820;50.870;4.702;2022-09-09T16:48:57;19.40;99.90
9564;DHT22;4820;50.870;4.702;2022-09-09T16:51:27;19.40;99.90
9564;DHT22;4820;50.870;4.702;2022-09-09T16:53:54;19.40;99.90
9564;DHT22;4820;50.870;4.702;2022-09-09T16:56:25;19.40;99.90
9564;DHT22;4820;50.870;4.702;2022-09-09T16:59:01;19.20;99.90
9564;DHT22;4820;50.870;4.702;2022-09-09T17:01:32;19.10;99.90
9564;DHT22;4820;50.870;4.702;2022-09-09T17:04:01;18.90;99.90
9564;DHT22;4820;50.870;4.702;2022-09-09T17:06:28;18.80;99.90
9564;DHT22;4820;50.870;4.702;2022-09-09T17:08:58;18.70;99.90
9564;DHT22;4820;50.870;4.702;2022-09-09T17:11:26;18.60;99.90
9564;DHT22;4820;50.870;4.702;2022-09-09T17:13:53;18.60;99.90
9564;DHT22;4820;50.870;4.702;2022-09-09T17:16:21;18.60;99.90
9564;DHT22;4820;50.870;4.702;2022-09-09T17:18:48;18.60;99.90
9564;DHT22;4820;50.870;4.702;2022-09-09T17:21:17;18.60;99.90
9564;DHT22;4820;50.870;4.702;2022-09-09T17:23:44;18.60;99.90
9564;DHT22;4820;50.870;4.702;2022-09-09T17:26:13;18.60;99.90
9564;DHT22;4820;50.870;4.702;2022-09-09T17:28:40;18.50;99.90
9564;DHT22;4820;50.870;4.702;2022-09-09T17:31:09;18.50;99.90
9564;DHT22;4820;50.870;4.702;2022-09-09T17:33:39;18.40;99.90
9564;DHT22;4820;50.870;4.702;2022-09-09T17:36:12;18.30;99.90
9564;DHT22;4820;50.870;4.702;2022-09-09T17:38:38;18.30;99.90
9564;DHT22;4820;50.870;4.702;2022-09-09T17:41:10;18.40;99.90
9564;DHT22;4820;50.870;4.702;2022-09-09T17:43:37;18.40;99.90
9564;DHT22;4820;50.870;4.702;2022-09-09T17:46:10;18.40;99.90
9564;DHT22;4820;50.870;4.702;2022-09-09T17:48:36;18.40;99.90
9564;DHT22;4820;50.870;4.702;2022-09-09T17:51:04;18.30;99.90
9564;DHT22;4820;50.870;4.702;2022-09-09T17:53:35;18.00;99.90
9564;DHT22;4820;50.870;4.702;2022-09-09T17:56:04;18.10;99.90
9564;DHT22;4820;50.870;4.702;2022-09-09T17:58:30;18.00;99.90
9564;DHT22;4820;50.870;4.702;2022-09-09T18:00:56;17.90;99.90
9564;DHT22;4820;50.870;4.702;2022-09-09T18:03:26;17.90;99.90
9564;DHT22;4820;50.870;4.702;2022-09-09T18:05:59;17.90;99.90
9564;DHT22;4820;50.870;4.702;2022-09-09T18:08:25;17.80;99.90
9564;DHT22;4820;50.870;4.702;2022-09-09T18:10:53;17.80;99.90
9564;DHT22;4820;50.870;4.702;2022-09-09T18:13:23;17.70;99.90
9564;DHT22;4820;50.870;4.702;2022-09-09T18:15:49;17.70;99.90
9564;DHT22;4820;50.870;4.702;2022-09-09T18:18:16;17.70;99.90
9564;DHT22;4820;50.870;4.702;2022-09-09T18:20:46;17.60;99.90
9564;DHT22;4820;50.870;4.702;2022-09-09T18:23:11;17.60;99.90
9564;DHT22;4820;50.870;4.702;2022-09-09T18:25:39;17.50;99.90
9564;DHT22;4820;50.870;4.702;2022-09-09T18:28:05;17.50;99.90
9564;DHT22;4820;50.870;4.702;2022-09-09T18:30:30;17.40;99.90
9564;DHT22;4820;50.870;4.702;2022-09-09T18:32:57;17.50;99.90